Scroll down
FLIGHT INFORMATION
Federal Express (FedEx)

FDX75

At Arrival Gate

NZAA
 YSSY
DATE: 2021-07-19
GATE: 83
GATE DEPARTURE: 06:27
TAKEOFF: 06:36
DATE: 2021-07-19
GATE:  -
LANDING: 09:30
GATE ARRIVAL: 09:35
FLIGHT DATA
Crew: 
Speed: 
494 kts
Altitude: 
36,015 ft
Stage Length: 
1,166.1 nm
Block Time: 
3.1 hrs
Flight Time: 
2.9 hrs
Fuel Used: 
47,599 lb
Cleared Route: NZAA AA PEBLU SASRO VELKU PLUGA RIKNI MARLN TESAT YSSY
TRACK DATA
50,000 ft 1,000 kts
AIRCRAFT INFO AND CUMULATIVE STATS
Aircraft Type: 
B77LF
Registration: 
SELCAL: 
LPJK
MSN/LN: 
37729 / 936
Total Flights: 
2
Total Block Time: 
11.6 hrs
Total Flight Time: 
11.2 hrs
Total Fuel Used: 
195,145 lb
DATALINK LOG | Newest first | Current as of: 2022-10-05 21:37:07
LABEL SEQUENCE CONTENT Dn/Up
QC323309:30▼ Dn
2U2528YSSY 190400Z 27011KT 9999 FEW040 BKN180 16/04 Q1014▲ Up
2S2528YSSY▼ Dn
2U1823YSSY 190300Z 26010KT 9999 FEW035 BKN190 15/04 Q1014▲ Up
2S1823YSSY▼ Dn
QB374606:36▼ Dn
QA283806:27 75.8▼ Dn
A31232CLEARED TO YSSY VIA AA N759 SASRO M636 PLUGA DCT RIKNI N774 TESAT. SQUAWK 3352.▲ Up
2U1231YSSY 190100Z 29012KT 9999 FEW035 BKN200 13/05 Q1017▲ Up
2U1231YMML 190100Z 33010KT 9999 FEW025 BKN057 12/06 Q1015▲ Up
2U1230NZAA 190100Z AUTO 25014KT 9999 SCT027/// BKN032/// 15/11 Q1001 NOSIG▲ Up
2S1230NZAA YSSY YMML▼ Dn
B31223NZAA YSSY FDX75 N858FD ▼ Dn
Q01122[LINK ACK]▲ Up
Q01122[LINK TEST]▼ Dn


AIRCRAFT HISTORY
FLIGHT DATE FLIGHT NO. ORIGIN DESTINATION CLEARED ROUTE BLOCK TIME FLIGHT TIME FUEL USED PILOT
2021-07-19FDX75NZAA YSSY NZAA AA PEBLU SASRO VELKU PLUGA RIKNI MARLN TESAT YSSY3.1 hrs2.9 hrs47,599 lbAllan Burek
2021-07-18FDX75PHNL NZAA PHNL CARRP DATBE DASNE DULCE DUNEY PUPIS UXULU LANAT UBRAX POPIR KADEN MALNI TARIB AA NZAA8.5 hrs8.2 hrs147,546 lbAllan Burek